createdAt,value
2022-09-06T00:00:55.323Z,962.75
2022-09-06T00:01:55.485Z,962.76
2022-09-06T00:02:55.497Z,962.7
2022-09-06T00:03:55.480Z,962.72
2022-09-06T00:04:55.325Z,962.68
2022-09-06T00:05:55.349Z,962.64
2022-09-06T00:07:55.479Z,962.67
2022-09-06T00:08:55.454Z,962.66
2022-09-06T00:09:55.355Z,962.68
2022-09-06T00:10:59.016Z,962.72
2022-09-06T00:11:55.639Z,962.8
2022-09-06T00:12:55.356Z,962.79
2022-09-06T00:13:55.395Z,962.81
2022-09-06T00:14:55.366Z,962.79
2022-09-06T00:15:55.480Z,962.84
2022-09-06T00:16:55.432Z,962.85
2022-09-06T00:17:55.464Z,962.83
2022-09-06T00:19:55.415Z,962.8
2022-09-06T00:21:55.436Z,962.83
2022-09-06T00:23:55.483Z,962.85
2022-09-06T00:24:55.434Z,962.86
2022-09-06T00:25:55.396Z,962.87
2022-09-06T00:27:55.445Z,962.89
2022-09-06T00:28:55.513Z,962.87
2022-09-06T00:29:55.473Z,962.88
2022-09-06T00:30:55.606Z,962.86
2022-09-06T00:31:55.521Z,962.87
2022-09-06T00:32:55.494Z,962.83
2022-09-06T00:33:55.564Z,962.88
2022-09-06T00:34:55.417Z,962.9
2022-09-06T00:37:55.523Z,962.89
2022-09-06T00:38:55.499Z,962.9
2022-09-06T00:39:55.622Z,962.88
2022-09-06T00:41:55.493Z,962.9
2022-09-06T00:43:55.539Z,962.87
2022-09-06T00:44:55.500Z,962.9
2022-09-06T00:45:55.590Z,962.93
2022-09-06T00:46:55.543Z,962.9
2022-09-06T00:47:55.513Z,962.88
2022-09-06T00:48:55.469Z,962.9
2022-09-06T00:49:55.547Z,962.88
2022-09-06T00:51:55.582Z,962.9
2022-09-06T00:52:55.562Z,962.88
2022-09-06T00:54:55.592Z,962.9
2022-09-06T00:55:55.557Z,962.93
2022-09-06T00:57:55.586Z,962.95
2022-09-06T00:58:55.568Z,962.94
2022-09-06T00:59:55.631Z,962.95
2022-09-06T01:00:55.604Z,962.92
2022-09-06T01:01:55.657Z,962.97
2022-09-06T01:02:55.598Z,962.95
2022-09-06T01:03:56.767Z,962.94
2022-09-06T01:04:55.580Z,962.97
2022-09-06T01:05:55.543Z,963.02
2022-09-06T01:06:55.490Z,962.99
2022-09-06T01:07:55.484Z,963.03
2022-09-06T01:08:55.544Z,963.02
2022-09-06T01:09:55.488Z,963.05
2022-09-06T01:10:55.494Z,963.03
2022-09-06T01:11:55.547Z,963.05
2022-09-06T01:12:55.508Z,963.03
2022-09-06T01:13:55.493Z,963.06
2022-09-06T01:14:55.664Z,963.04
2022-09-06T01:15:55.526Z,963.02
2022-09-06T01:16:55.601Z,963.03
2022-09-06T01:17:55.658Z,963.05
2022-09-06T01:18:55.515Z,963.06
2022-09-06T01:19:55.603Z,963.03
2022-09-06T01:20:55.528Z,963.06
2022-09-06T01:21:55.631Z,963.07
2022-09-06T01:22:55.615Z,963.1
2022-09-06T01:23:55.671Z,963.09
2022-09-06T01:24:55.641Z,963.08
2022-09-06T01:27:55.551Z,963.1
2022-09-06T01:28:55.611Z,963.13
2022-09-06T01:30:55.678Z,963.12
2022-09-06T01:31:55.619Z,963.11
2022-09-06T01:32:55.694Z,963.09
2022-09-06T01:33:55.654Z,963.15
2022-09-06T01:34:55.623Z,963.12
2022-09-06T01:35:55.545Z,963.13
2022-09-06T01:37:09.255Z,963.1
2022-09-06T01:37:55.624Z,963.12
2022-09-06T01:38:55.583Z,963.16
2022-09-06T01:39:55.798Z,963.1
2022-09-06T01:40:55.563Z,963.12
2022-09-06T01:41:55.562Z,963.13
2022-09-06T01:43:55.632Z,963.14
2022-09-06T01:45:55.703Z,963.15
2022-09-06T01:46:55.582Z,963.13
2022-09-06T01:48:55.665Z,963.2
2022-09-06T01:49:55.654Z,963.18
2022-09-06T01:50:55.595Z,963.23
2022-09-06T01:51:55.594Z,963.22
2022-09-06T01:52:55.736Z,963.24
2022-09-06T01:53:55.712Z,963.22
2022-09-06T01:54:55.616Z,963.2
2022-09-06T01:55:55.761Z,963.22
2022-09-06T01:56:55.613Z,963.24
2022-09-06T01:57:55.683Z,963.26
2022-09-06T01:58:55.807Z,963.28
2022-09-06T01:59:55.718Z,963.34
2022-09-06T02:01:55.678Z,963.43
2022-09-06T02:02:55.745Z,963.42
2022-09-06T02:04:55.636Z,963.46
2022-09-06T02:05:55.620Z,963.49
2022-09-06T02:06:55.695Z,963.47
2022-09-06T02:07:55.656Z,963.42
2022-09-06T02:09:55.702Z,963.45
2022-09-06T02:11:55.639Z,963.43
2022-09-06T02:12:55.641Z,963.47
2022-09-06T02:13:55.771Z,963.42
2022-09-06T02:14:55.735Z,963.41
2022-09-06T02:15:55.656Z,963.39
2022-09-06T02:17:55.746Z,963.36
2022-09-06T02:18:55.714Z,963.34
2022-09-06T02:20:55.744Z,963.28
2022-09-06T02:22:55.672Z,963.26
2022-09-06T02:23:55.753Z,963.25
2022-09-06T02:24:55.671Z,963.24
2022-09-06T02:25:55.793Z,963.25
2022-09-06T02:26:55.758Z,963.27
2022-09-06T02:28:55.797Z,963.3
2022-09-06T02:29:55.697Z,963.32
2022-09-06T02:30:55.730Z,963.34
2022-09-06T02:31:55.794Z,963.38
2022-09-06T02:32:55.694Z,963.42
2022-09-06T02:33:55.831Z,963.36
2022-09-06T02:34:55.699Z,963.35
2022-09-06T02:35:55.705Z,963.33
2022-09-06T02:36:55.839Z,963.3
2022-09-06T02:37:55.703Z,963.26
2022-09-06T02:38:55.768Z,963.24
2022-09-06T02:39:55.790Z,963.21
2022-09-06T02:40:55.806Z,963.18
2022-09-06T02:41:55.719Z,963.16
2022-09-06T02:42:55.851Z,963.11
2022-09-06T02:43:55.816Z,963.15
2022-09-06T02:44:55.782Z,963.12
2022-09-06T02:45:55.796Z,963.1
2022-09-06T02:46:57.211Z,963.06
2022-09-06T02:48:55.858Z,963.05
2022-09-06T02:50:55.734Z,963.04
2022-09-06T02:51:55.745Z,963.02
2022-09-06T02:52:55.840Z,963
2022-09-06T02:53:55.793Z,963.01
2022-09-06T02:54:55.867Z,963
2022-09-06T02:55:55.815Z,963.03
2022-09-06T02:57:55.858Z,963.04
2022-09-06T02:59:55.758Z,963.05
2022-09-06T03:00:55.797Z,963.09
2022-09-06T03:01:55.796Z,963.04
2022-09-06T03:02:55.811Z,963.02
2022-09-06T03:03:55.874Z,963.05
2022-09-06T03:06:55.778Z,963.02
2022-09-06T03:07:55.785Z,963.03
2022-09-06T03:08:55.862Z,963.01
2022-09-06T03:09:55.890Z,963.03
2022-09-06T03:10:55.805Z,963.06
2022-09-06T03:11:55.918Z,963.01
2022-09-06T03:12:55.879Z,963.05
2022-09-06T03:13:55.954Z,963.01
2022-09-06T03:14:55.927Z,962.99
2022-09-06T03:15:55.900Z,963.03
2022-09-06T03:20:55.933Z,963.04
2022-09-06T03:22:57.086Z,963.01
2022-09-06T03:23:55.937Z,963.02
2022-09-06T03:24:55.917Z,963.05
2022-09-06T03:25:55.824Z,963.04
2022-09-06T03:26:55.837Z,963.05
2022-09-06T03:27:55.824Z,963.09
2022-09-06T03:28:55.834Z,963.07
2022-09-06T03:29:55.951Z,963.1
2022-09-06T03:30:55.912Z,963.09
2022-09-06T03:31:55.913Z,963.12
2022-09-06T03:32:55.943Z,963.1
2022-09-06T03:33:55.843Z,963.11
2022-09-06T03:34:55.990Z,963.14
2022-09-06T03:35:55.961Z,963.11
2022-09-06T03:36:55.855Z,963.08
2022-09-06T03:37:56.008Z,963.1
2022-09-06T03:39:55.979Z,963.11
2022-09-06T03:40:55.867Z,963.13
2022-09-06T03:41:55.872Z,963.12
2022-09-06T03:44:55.868Z,963.11
2022-09-06T03:45:55.976Z,963.12
2022-09-06T03:46:55.940Z,963.09
2022-09-06T03:48:55.886Z,963.06
2022-09-06T03:49:55.886Z,963.07
2022-09-06T03:50:55.972Z,963.03
2022-09-06T03:51:55.896Z,963.05
2022-09-06T03:53:55.889Z,963.06
2022-09-06T03:54:55.951Z,963.05
2022-09-06T03:55:55.905Z,963.08
2022-09-06T03:56:55.987Z,963.1
2022-09-06T03:57:55.907Z,963.05
2022-09-06T03:58:55.901Z,963.04
2022-09-06T03:59:55.993Z,963.07
2022-09-06T04:00:56.072Z,963.01
2022-09-06T04:01:56.080Z,963
2022-09-06T04:02:58.617Z,962.97
2022-09-06T04:03:55.949Z,962.98
2022-09-06T04:04:56.040Z,962.95
2022-09-06T04:05:55.983Z,962.91
2022-09-06T04:06:55.965Z,962.93
2022-09-06T04:09:55.936Z,962.91
2022-09-06T04:10:56.055Z,962.92
2022-09-06T04:12:56.079Z,962.91
2022-09-06T04:13:55.935Z,962.89
2022-09-06T04:15:55.959Z,962.86
2022-09-06T04:16:56.025Z,962.84
2022-09-06T04:18:55.952Z,962.86
2022-09-06T04:19:55.963Z,962.89
2022-09-06T04:20:56.052Z,962.9
2022-09-06T04:21:55.965Z,962.89
2022-09-06T04:22:56.045Z,962.88
2022-09-06T04:23:56.025Z,962.9
2022-09-06T04:24:55.978Z,962.91
2022-09-06T04:25:56.045Z,962.9
2022-09-06T04:26:56.040Z,962.88
2022-09-06T04:28:55.987Z,962.9
2022-09-06T04:29:55.984Z,962.93
2022-09-06T04:30:56.096Z,962.92
2022-09-06T04:32:55.992Z,962.95
2022-09-06T04:33:55.995Z,962.99
2022-09-06T04:34:55.987Z,962.96
2022-09-06T04:35:56.043Z,963
2022-09-06T04:36:56.106Z,962.95
2022-09-06T04:37:56.072Z,962.98
2022-09-06T04:38:56.149Z,963
2022-09-06T04:39:56.052Z,962.98
2022-09-06T04:40:56.029Z,963.01
2022-09-06T04:41:56.007Z,962.97
2022-09-06T04:42:56.105Z,963
2022-09-06T04:43:56.187Z,963.02
2022-09-06T04:44:56.034Z,963
2022-09-06T04:46:56.220Z,962.98
2022-09-06T04:47:56.046Z,962.97
2022-09-06T04:48:56.029Z,962.98
2022-09-06T04:49:56.037Z,962.97
2022-09-06T04:50:56.163Z,962.96
2022-09-06T04:51:56.134Z,962.99
2022-09-06T04:52:56.049Z,962.97
2022-09-06T04:53:56.162Z,963
2022-09-06T04:54:56.130Z,962.96
2022-09-06T04:55:56.093Z,962.97
2022-09-06T04:56:56.041Z,962.98
2022-09-06T04:57:56.135Z,962.99
2022-09-06T04:58:56.143Z,962.97
2022-09-06T04:59:56.167Z,962.94
2022-09-06T05:00:56.076Z,962.96
2022-09-06T05:01:56.174Z,962.91
2022-09-06T05:02:56.069Z,962.95
2022-09-06T05:03:57.019Z,962.94
2022-09-06T05:04:56.057Z,962.93
2022-09-06T05:05:56.078Z,962.95
2022-09-06T05:07:56.114Z,962.97
2022-09-06T05:08:56.189Z,962.99
2022-09-06T05:09:56.150Z,963.03
2022-09-06T05:11:56.078Z,963.06
2022-09-06T05:12:56.104Z,963.09
2022-09-06T05:13:56.097Z,963.11
2022-09-06T05:15:56.127Z,963.12
2022-09-06T05:16:56.200Z,963.14
2022-09-06T05:17:56.194Z,963.16
2022-09-06T05:18:56.168Z,963.21
2022-09-06T05:19:56.106Z,963.19
2022-09-06T05:20:56.201Z,963.2
2022-09-06T05:23:58.607Z,963.22
2022-09-06T05:24:56.174Z,963.24
2022-09-06T05:25:56.236Z,963.27
2022-09-06T05:26:56.215Z,963.26
2022-09-06T05:27:56.143Z,963.25
2022-09-06T05:28:56.121Z,963.29
2022-09-06T05:29:56.133Z,963.28
2022-09-06T05:30:57.316Z,963.29
2022-09-06T05:31:56.253Z,963.31
2022-09-06T05:32:56.216Z,963.26
2022-09-06T05:33:56.172Z,963.31
2022-09-06T05:34:56.156Z,963.36
2022-09-06T05:35:56.219Z,963.32
2022-09-06T05:37:56.257Z,963.34
2022-09-06T05:38:56.152Z,963.31
2022-09-06T05:39:56.241Z,963.33
2022-09-06T05:40:56.260Z,963.34
2022-09-06T05:42:56.191Z,963.38
2022-09-06T05:43:56.264Z,963.39
2022-09-06T05:44:56.174Z,963.4
2022-09-06T05:45:56.259Z,963.43
2022-09-06T05:46:56.278Z,963.41
2022-09-06T05:47:56.234Z,963.43
2022-09-06T05:48:57.426Z,963.45
2022-09-06T05:49:56.266Z,963.38
2022-09-06T05:50:56.248Z,963.4
2022-09-06T05:51:56.307Z,963.39
2022-09-06T05:52:56.282Z,963.38
2022-09-06T05:53:56.191Z,963.43
2022-09-06T05:54:56.314Z,963.39
2022-09-06T05:55:56.198Z,963.4
2022-09-06T05:56:56.277Z,963.36
2022-09-06T05:57:56.319Z,963.4
2022-09-06T05:58:56.202Z,963.37
2022-09-06T05:59:56.245Z,963.35
2022-09-06T06:00:56.242Z,963.4
2022-09-06T06:01:56.236Z,963.41
2022-09-06T06:02:56.230Z,963.39
2022-09-06T06:03:56.221Z,963.41
2022-09-06T06:04:56.226Z,963.43
2022-09-06T06:05:57.516Z,963.45
2022-09-06T06:06:56.228Z,963.47
2022-09-06T06:07:56.222Z,963.45
2022-09-06T06:08:56.264Z,963.46
2022-09-06T06:09:56.233Z,963.45
2022-09-06T06:10:56.341Z,963.47
2022-09-06T06:11:56.257Z,963.5
2022-09-06T06:12:56.252Z,963.46
2022-09-06T06:13:56.235Z,963.51
2022-09-06T06:14:56.231Z,963.52
2022-09-06T06:15:56.244Z,963.55
2022-09-06T06:16:56.286Z,963.57
2022-09-06T06:17:56.377Z,963.55
2022-09-06T06:19:56.321Z,963.56
2022-09-06T06:21:56.254Z,963.57
2022-09-06T06:22:56.260Z,963.55
2022-09-06T06:23:56.390Z,963.54
2022-09-06T06:24:56.295Z,963.53
2022-09-06T06:26:56.284Z,963.58
2022-09-06T06:27:56.362Z,963.55
2022-09-06T06:28:56.429Z,963.53
2022-09-06T06:29:56.401Z,963.55
2022-09-06T06:30:56.360Z,963.56
2022-09-06T06:31:56.414Z,963.53
2022-09-06T06:32:56.288Z,963.59
2022-09-06T06:33:56.365Z,963.56
2022-09-06T06:34:56.435Z,963.58
2022-09-06T06:35:56.399Z,963.57
2022-09-06T06:36:56.379Z,963.58
2022-09-06T06:37:56.366Z,963.6
2022-09-06T06:38:56.400Z,963.63
2022-09-06T06:39:56.409Z,963.66
2022-09-06T06:41:56.409Z,963.67
2022-09-06T06:42:56.306Z,963.69
2022-09-06T06:44:56.424Z,963.7
2022-09-06T06:45:56.404Z,963.71
2022-09-06T06:46:56.449Z,963.69
2022-09-06T06:47:56.417Z,963.7
2022-09-06T06:48:56.420Z,963.71
2022-09-06T06:49:56.402Z,963.7
2022-09-06T06:50:56.328Z,963.72
2022-09-06T06:51:56.390Z,963.74
2022-09-06T06:52:56.457Z,963.79
2022-09-06T06:54:56.339Z,963.8
2022-09-06T06:55:56.351Z,963.77
2022-09-06T06:56:56.430Z,963.73
2022-09-06T06:57:56.403Z,963.75
2022-09-06T06:58:56.469Z,963.74
2022-09-06T06:59:56.357Z,963.75
2022-09-06T07:00:56.474Z,963.76
2022-09-06T07:02:56.365Z,963.73
2022-09-06T07:03:56.359Z,963.72
2022-09-06T07:04:56.477Z,963.73
2022-09-06T07:06:12.226Z,963.7
2022-09-06T07:07:56.629Z,963.69
2022-09-06T07:08:56.451Z,963.74
2022-09-06T07:10:56.605Z,963.96
2022-09-06T07:11:56.460Z,964.04
2022-09-06T07:12:56.385Z,964.03
2022-09-06T07:13:56.489Z,964.18
2022-09-06T07:14:56.392Z,964.16
2022-09-06T07:15:56.446Z,964.03
2022-09-06T07:16:56.497Z,963.93
2022-09-06T07:17:56.554Z,963.8
2022-09-06T07:18:56.399Z,963.69
2022-09-06T07:21:56.924Z,963.47
2022-09-06T07:22:56.676Z,963.43
2022-09-06T07:24:07.860Z,963.41
2022-09-06T07:24:56.559Z,963.37
2022-09-06T07:25:56.426Z,963.4
2022-09-06T07:27:56.549Z,963.39
2022-09-06T07:28:56.431Z,963.38
2022-09-06T07:29:56.427Z,963.36
2022-09-06T07:30:56.433Z,963.4
2022-09-06T07:32:12.078Z,963.42
2022-09-06T07:33:56.701Z,963.43
2022-09-06T07:34:56.435Z,963.42
2022-09-06T07:36:56.557Z,963.44
2022-09-06T07:37:56.523Z,963.42
2022-09-06T07:38:56.464Z,963.43
2022-09-06T07:39:56.567Z,963.44
2022-09-06T07:40:56.454Z,963.42
2022-09-06T07:41:56.457Z,963.45
2022-09-06T07:42:56.570Z,963.53
2022-09-06T07:45:56.459Z,963.51
2022-09-06T07:48:56.482Z,963.5
2022-09-06T07:50:59.085Z,963.55
2022-09-06T07:51:56.696Z,963.59
2022-09-06T07:53:13.951Z,963.62
2022-09-06T07:54:56.589Z,963.6
2022-09-06T07:56:56.496Z,963.62
2022-09-06T07:57:56.591Z,963.61
2022-09-06T07:58:56.492Z,963.59
2022-09-06T07:59:56.619Z,963.58
2022-09-06T08:03:56.520Z,963.59
2022-09-06T08:04:56.562Z,963.55
2022-09-06T08:06:10.800Z,963.58
2022-09-06T08:09:56.598Z,963.66
2022-09-06T08:10:56.548Z,963.67
2022-09-06T08:11:56.543Z,963.72
2022-09-06T08:12:56.611Z,963.74
2022-09-06T08:13:56.542Z,963.79
2022-09-06T08:14:56.546Z,963.81
2022-09-06T08:15:56.575Z,963.86
2022-09-06T08:16:56.579Z,963.88
2022-09-06T08:17:56.542Z,963.95
2022-09-06T08:18:56.614Z,963.94
2022-09-06T08:19:56.685Z,963.98
2022-09-06T08:20:56.657Z,964.01
2022-09-06T08:21:56.627Z,964.02
2022-09-06T08:22:56.565Z,964.01
2022-09-06T08:23:56.563Z,964.06
2022-09-06T08:24:56.578Z,964.09
2022-09-06T08:25:56.580Z,964.08
2022-09-06T08:26:56.659Z,964.13
2022-09-06T08:27:57.838Z,964.15
2022-09-06T08:29:56.656Z,964.17
2022-09-06T08:30:56.590Z,964.16
2022-09-06T08:31:56.643Z,964.14
2022-09-06T08:33:56.587Z,964.13
2022-09-06T08:34:56.704Z,964.15
2022-09-06T08:35:56.596Z,964.16
2022-09-06T08:36:56.601Z,964.17
2022-09-06T08:38:56.674Z,964.17
2022-09-06T08:39:56.692Z,964.14
2022-09-06T08:40:56.712Z,964.16
2022-09-06T08:42:56.599Z,964.22
2022-09-06T08:44:57.133Z,964.27
2022-09-06T08:45:56.693Z,964.3
2022-09-06T08:46:56.776Z,964.35
2022-09-06T08:47:56.678Z,964.39
2022-09-06T08:48:57.989Z,964.33
2022-09-06T08:50:56.799Z,964.28
2022-09-06T08:51:56.632Z,964.27
2022-09-06T08:53:16.032Z,964.26
2022-09-06T08:53:56.704Z,964.22
2022-09-06T08:54:56.653Z,964.16
2022-09-06T08:55:56.739Z,964.14
2022-09-06T08:56:56.696Z,964.11
2022-09-06T08:57:56.770Z,964.07
2022-09-06T08:58:56.658Z,964.02
2022-09-06T08:59:56.661Z,964.05
2022-09-06T09:00:56.688Z,964.01
2022-09-06T09:01:56.785Z,963.99
2022-09-06T09:02:56.676Z,963.97
2022-09-06T09:03:56.873Z,963.96
2022-09-06T09:04:56.751Z,963.94
2022-09-06T09:05:56.818Z,963.93
2022-09-06T09:07:56.672Z,963.9
2022-09-06T09:08:56.719Z,963.92
2022-09-06T09:09:56.791Z,963.89
2022-09-06T09:11:56.718Z,963.84
2022-09-06T09:14:56.769Z,963.88
2022-09-06T09:15:56.841Z,963.89
2022-09-06T09:16:56.769Z,963.88
2022-09-06T09:17:56.700Z,963.83
2022-09-06T09:18:56.801Z,963.86
2022-09-06T09:19:56.767Z,963.83
2022-09-06T09:21:56.809Z,963.78
2022-09-06T09:22:56.775Z,963.75
2022-09-06T09:23:56.716Z,963.76
2022-09-06T09:25:56.732Z,963.78
2022-09-06T09:26:56.730Z,963.76
2022-09-06T09:27:56.808Z,963.78
2022-09-06T09:28:57.708Z,963.79
2022-09-06T09:30:57.239Z,963.82
2022-09-06T09:31:56.860Z,963.83
2022-09-06T09:32:56.850Z,963.82
2022-09-06T09:33:56.824Z,963.81
2022-09-06T09:34:56.751Z,963.83
2022-09-06T09:35:56.860Z,963.86
2022-09-06T09:38:56.854Z,963.85
2022-09-06T09:39:56.915Z,963.86
2022-09-06T09:40:56.760Z,963.87
2022-09-06T09:41:56.869Z,963.91
2022-09-06T09:42:56.832Z,963.92
2022-09-06T09:43:58.415Z,963.95
2022-09-06T09:44:56.769Z,963.99
2022-09-06T09:45:56.781Z,964.05
2022-09-06T09:47:56.782Z,964.03
2022-09-06T09:48:56.772Z,964.01
2022-09-06T09:49:56.794Z,964
2022-09-06T09:50:56.879Z,963.96
2022-09-06T09:51:56.935Z,963.97
2022-09-06T09:52:56.796Z,964.02
2022-09-06T09:53:56.803Z,964.05
2022-09-06T09:54:57.845Z,964.02
2022-09-06T09:56:56.812Z,964
2022-09-06T09:57:56.849Z,964.01
2022-09-06T09:58:56.805Z,964.04
2022-09-06T09:59:56.813Z,964.01
2022-09-06T10:00:56.873Z,963.92
2022-09-06T10:01:56.814Z,963.86
2022-09-06T10:02:56.840Z,963.84
2022-09-06T10:04:57.050Z,963.78
2022-09-06T10:06:01.846Z,963.72
2022-09-06T10:07:10.375Z,963.74
2022-09-06T10:07:56.932Z,963.69
2022-09-06T10:08:56.827Z,963.68
2022-09-06T10:09:56.930Z,963.66
2022-09-06T10:10:56.857Z,963.6
2022-09-06T10:11:56.838Z,963.59
2022-09-06T10:12:57.000Z,963.58
2022-09-06T10:13:56.844Z,963.56
2022-09-06T10:15:57.064Z,963.57
2022-09-06T10:16:56.848Z,963.69
2022-09-06T10:17:56.854Z,963.78
2022-09-06T10:18:56.859Z,963.85
2022-09-06T10:19:56.858Z,963.89
2022-09-06T10:20:56.863Z,963.92
2022-09-06T10:22:56.866Z,963.9
2022-09-06T10:24:26.001Z,963.83
2022-09-06T10:24:56.993Z,963.81
2022-09-06T10:25:56.863Z,963.76
2022-09-06T10:26:56.898Z,963.77
2022-09-06T10:28:11.565Z,963.75
2022-09-06T10:28:56.964Z,963.81
2022-09-06T10:29:56.924Z,963.73
2022-09-06T10:30:56.908Z,963.68
2022-09-06T10:31:56.970Z,963.69
2022-09-06T10:32:56.889Z,963.66
2022-09-06T10:34:56.962Z,963.64
2022-09-06T10:35:56.930Z,963.63
2022-09-06T10:36:57.007Z,963.61
2022-09-06T10:37:56.991Z,963.57
2022-09-06T10:39:00.422Z,963.56
2022-09-06T10:39:56.990Z,963.55
2022-09-06T10:40:56.913Z,963.48
2022-09-06T10:41:57.091Z,963.44
2022-09-06T10:42:57.019Z,963.4
2022-09-06T10:43:56.985Z,963.38
2022-09-06T10:44:56.922Z,963.3
2022-09-06T10:46:57.101Z,963.35
2022-09-06T10:47:56.979Z,963.32
2022-09-06T10:50:56.960Z,963.33
2022-09-06T10:51:56.937Z,963.28
2022-09-06T10:53:57.069Z,963.24
2022-09-06T10:54:56.949Z,963.23
2022-09-06T10:55:59.761Z,963.19
2022-09-06T10:56:57.148Z,963.2
2022-09-06T10:58:17.991Z,963.18
2022-09-06T10:59:57.084Z,963.22
2022-09-06T11:00:57.047Z,963.21
2022-09-06T11:01:57.026Z,963.19
2022-09-06T11:03:58.439Z,963.19
2022-09-06T11:05:57.186Z,963.17
2022-09-06T11:06:57.056Z,963.09
2022-09-06T11:08:58.223Z,962.95
2022-09-06T11:09:57.134Z,962.88
2022-09-06T11:10:56.981Z,962.83
2022-09-06T11:11:57.011Z,962.82
2022-09-06T11:13:57.004Z,962.76
2022-09-06T11:14:57.105Z,962.75
2022-09-06T11:15:57.047Z,962.72
2022-09-06T11:16:57.010Z,962.74
2022-09-06T11:17:57.110Z,962.72
2022-09-06T11:18:57.099Z,962.69
2022-09-06T11:19:57.140Z,962.66
2022-09-06T11:20:57.146Z,962.68
2022-09-06T11:21:57.063Z,962.6
2022-09-06T11:23:57.106Z,962.56
2022-09-06T11:25:57.145Z,962.58
2022-09-06T11:26:57.119Z,962.55
2022-09-06T11:27:58.194Z,962.57
2022-09-06T11:28:57.186Z,962.62
2022-09-06T11:29:57.125Z,962.6
2022-09-06T11:30:57.060Z,962.61
2022-09-06T11:32:17.670Z,962.58
2022-09-06T11:32:57.042Z,962.55
2022-09-06T11:34:00.720Z,962.53
2022-09-06T11:34:57.349Z,962.54
2022-09-06T11:35:57.045Z,962.49
2022-09-06T11:36:57.063Z,962.51
2022-09-06T11:37:57.086Z,962.48
2022-09-06T11:38:57.068Z,962.5
2022-09-06T11:40:27.465Z,962.45
2022-09-06T11:40:57.171Z,962.47
2022-09-06T11:41:57.070Z,962.5
2022-09-06T11:44:57.175Z,962.54
2022-09-06T11:45:57.226Z,962.53
2022-09-06T11:46:57.170Z,962.51
2022-09-06T11:47:57.082Z,962.49
2022-09-06T11:48:57.093Z,962.47
2022-09-06T11:49:57.094Z,962.45
2022-09-06T11:50:57.102Z,962.46
2022-09-06T11:51:57.092Z,962.44
2022-09-06T11:52:57.106Z,962.41
2022-09-06T11:53:57.166Z,962.47
2022-09-06T11:55:57.100Z,962.44
2022-09-06T11:57:57.114Z,962.46
2022-09-06T11:58:57.113Z,962.44
2022-09-06T11:59:57.121Z,962.52
2022-09-06T12:00:57.123Z,962.47
2022-09-06T12:01:57.120Z,962.53
2022-09-06T12:04:05.049Z,962.5
2022-09-06T12:05:00.084Z,962.55
2022-09-06T12:05:57.175Z,962.58
2022-09-06T12:06:57.129Z,962.61
2022-09-06T12:07:57.205Z,962.62
2022-09-06T12:08:57.258Z,962.64
2022-09-06T12:09:57.144Z,962.65
2022-09-06T12:10:57.221Z,962.67
2022-09-06T12:11:57.273Z,962.7
2022-09-06T12:12:57.171Z,962.74
2022-09-06T12:13:57.347Z,962.79
2022-09-06T12:14:57.175Z,962.78
2022-09-06T12:15:57.184Z,962.8
2022-09-06T12:16:57.212Z,962.82
2022-09-06T12:17:57.287Z,962.81
2022-09-06T12:18:57.360Z,962.84
2022-09-06T12:19:57.207Z,962.83
2022-09-06T12:20:57.179Z,962.88
2022-09-06T12:21:57.256Z,962.91
2022-09-06T12:22:57.187Z,962.94
2022-09-06T12:23:57.300Z,963.02
2022-09-06T12:24:57.268Z,963.07
2022-09-06T12:25:57.342Z,963.15
2022-09-06T12:26:57.310Z,963.22
2022-09-06T12:27:57.292Z,963.24
2022-09-06T12:28:57.233Z,963.26
2022-09-06T12:29:57.299Z,963.24
2022-09-06T12:30:57.330Z,963.27
2022-09-06T12:31:57.200Z,963.26
2022-09-06T12:32:57.199Z,963.23
2022-09-06T12:33:57.198Z,963.17
2022-09-06T12:35:57.500Z,963.21
2022-09-06T12:36:57.209Z,963.25
2022-09-06T12:38:57.322Z,963.2
2022-09-06T12:39:57.431Z,963.17
2022-09-06T12:40:57.349Z,963.18
2022-09-06T12:41:57.317Z,963.23
2022-09-06T12:42:57.291Z,963.19
2022-09-06T12:44:57.314Z,963.15
2022-09-06T12:45:57.352Z,963.13
2022-09-06T12:46:57.241Z,963.1
2022-09-06T12:48:57.258Z,963.12
2022-09-06T12:49:57.363Z,963.16
2022-09-06T12:50:57.329Z,963.11
2022-09-06T12:51:57.314Z,963.09
2022-09-06T12:52:57.362Z,963.03
2022-09-06T12:53:57.330Z,963.05
2022-09-06T12:54:57.292Z,962.99
2022-09-06T12:55:57.252Z,962.97
2022-09-06T12:56:57.335Z,962.98
2022-09-06T12:57:57.403Z,962.96
2022-09-06T12:58:57.373Z,962.99
2022-09-06T12:59:57.342Z,962.97
2022-09-06T13:01:57.450Z,962.95
2022-09-06T13:02:57.581Z,962.92
2022-09-06T13:03:57.292Z,962.9
2022-09-06T13:04:57.302Z,962.85
2022-09-06T13:05:57.294Z,962.8
2022-09-06T13:06:57.423Z,962.72
2022-09-06T13:07:57.385Z,962.66
2022-09-06T13:08:57.425Z,962.58
2022-09-06T13:09:57.445Z,962.55
2022-09-06T13:10:57.299Z,962.49
2022-09-06T13:11:57.300Z,962.43
2022-09-06T13:12:57.316Z,962.46
2022-09-06T13:13:57.388Z,962.49
2022-09-06T13:14:57.312Z,962.55
2022-09-06T13:15:57.375Z,962.6
2022-09-06T13:16:57.407Z,962.64
2022-09-06T13:17:57.360Z,962.68
2022-09-06T13:19:57.405Z,962.65
2022-09-06T13:20:57.322Z,962.6
2022-09-06T13:21:57.453Z,962.56
2022-09-06T13:22:57.331Z,962.58
2022-09-06T13:23:57.367Z,962.59
2022-09-06T13:24:57.463Z,962.55
2022-09-06T13:25:57.409Z,962.56
2022-09-06T13:26:57.387Z,962.57
2022-09-06T13:27:57.466Z,962.56
2022-09-06T13:28:57.414Z,962.55
2022-09-06T13:29:57.493Z,962.51
2022-09-06T13:30:57.499Z,962.46
2022-09-06T13:31:57.355Z,962.51
2022-09-06T13:32:57.341Z,962.48
2022-09-06T13:33:57.455Z,962.53
2022-09-06T13:34:57.421Z,962.56
2022-09-06T13:35:57.379Z,962.54
2022-09-06T13:36:57.471Z,962.51
2022-09-06T13:37:57.426Z,962.46
2022-09-06T13:38:57.372Z,962.43
2022-09-06T13:39:57.944Z,962.45
2022-09-06T13:41:11.811Z,962.41
2022-09-06T13:41:57.502Z,962.44
2022-09-06T13:42:57.388Z,962.46
2022-09-06T13:43:57.436Z,962.43
2022-09-06T13:45:00.051Z,962.37
2022-09-06T13:45:57.654Z,962.33
2022-09-06T13:46:57.397Z,962.4
2022-09-06T13:48:12.996Z,962.39
2022-09-06T13:48:57.489Z,962.38
2022-09-06T13:49:57.399Z,962.41
2022-09-06T13:50:57.513Z,962.36
2022-09-06T13:51:57.400Z,962.39
2022-09-06T13:52:57.553Z,962.4
2022-09-06T13:53:57.514Z,962.37
2022-09-06T13:54:57.489Z,962.36
2022-09-06T13:55:57.456Z,962.33
2022-09-06T13:56:57.407Z,962.28
2022-09-06T13:57:57.499Z,962.26
2022-09-06T13:58:57.556Z,962.27
2022-09-06T13:59:57.523Z,962.25
2022-09-06T14:00:57.442Z,962.21
2022-09-06T14:01:57.500Z,962.2
2022-09-06T14:03:57.431Z,962.15
2022-09-06T14:04:57.443Z,962.1
2022-09-06T14:05:57.531Z,962.05
2022-09-06T14:06:57.439Z,961.98
2022-09-06T14:09:06.712Z,961.99
2022-09-06T14:09:57.449Z,961.91
2022-09-06T14:10:57.446Z,961.97
2022-09-06T14:11:57.562Z,961.86
2022-09-06T14:12:57.518Z,961.81
2022-09-06T14:13:57.580Z,961.78
2022-09-06T14:14:57.549Z,961.76
2022-09-06T14:15:57.657Z,961.79
2022-09-06T14:17:57.553Z,961.77
2022-09-06T14:18:57.631Z,961.75
2022-09-06T14:20:57.563Z,961.74
2022-09-06T14:21:57.634Z,961.73
2022-09-06T14:22:57.590Z,961.72
2022-09-06T14:24:57.533Z,961.75
2022-09-06T14:26:57.563Z,961.74
2022-09-06T14:27:57.497Z,961.81
2022-09-06T14:28:57.593Z,961.78
2022-09-06T14:29:57.574Z,961.82
2022-09-06T14:31:57.492Z,961.83
2022-09-06T14:32:57.567Z,961.87
2022-09-06T14:35:57.511Z,961.85
2022-09-06T14:36:57.557Z,961.84
2022-09-06T14:37:57.611Z,961.87
2022-09-06T14:38:57.579Z,961.89
2022-09-06T14:39:57.578Z,961.83
2022-09-06T14:40:57.620Z,961.85
2022-09-06T14:41:57.534Z,961.86
2022-09-06T14:42:57.531Z,961.87
2022-09-06T14:43:57.529Z,961.89
2022-09-06T14:44:57.543Z,961.9
2022-09-06T14:46:57.532Z,961.87
2022-09-06T14:47:58.967Z,961.82
2022-09-06T14:48:57.568Z,961.84